Time;durP1;ratioP1;P1;durP2;ratioP2;P2;SDS_P1;SDS_P2;PMS_P1;PMS_P2;Temp;Humidity;BMP_temperature;BMP_pressure;BME280_temperature;BME280_humidity;BME280_pressure;Samples;Min_cycle;Max_cycle;Signal;HPM_P1;HPM_P2
2022/12/05 00:00:28;;;;;;;20.23;15.53;;;;;;;1.94;100.00;99972.28;4992997;28;20342;-75
2022/12/05 00:02:54;;;;;;;23.03;15.93;;;;;;;1.99;100.00;99972.19;5025081;28;20217;-77
2022/12/05 00:05:19;;;;;;;21.23;15.83;;;;;;;1.71;100.00;99967.66;5012983;28;20186;-75
2022/12/05 00:07:44;;;;;;;21.83;16.67;;;;;;;1.59;100.00;99974.66;5012586;28;20196;-75
2022/12/05 00:10:10;;;;;;;22.07;16.57;;;;;;;1.43;100.00;99971.59;5002850;28;20673;-75
2022/12/05 00:12:36;;;;;;;20.70;15.73;;;;;;;1.66;100.00;99974.53;5027066;28;20182;-76
2022/12/05 00:15:02;;;;;;;21.50;16.27;;;;;;;1.77;100.00;99972.63;5011932;28;20188;-70
2022/12/05 00:17:27;;;;;;;22.20;16.27;;;;;;;1.77;100.00;99983.63;5021225;28;20235;-75
2022/12/05 00:19:52;;;;;;;20.20;16.03;;;;;;;1.87;100.00;99976.66;5013165;28;20180;-76
2022/12/05 00:22:17;;;;;;;22.83;17.40;;;;;;;1.85;100.00;99985.13;5017903;28;20277;-74
2022/12/05 00:24:43;;;;;;;22.67;16.70;;;;;;;1.80;100.00;99980.19;5012936;28;20343;-75
2022/12/05 00:27:08;;;;;;;24.07;16.50;;;;;;;1.77;100.00;99990.38;5027419;28;20184;-76
2022/12/05 00:29:33;;;;;;;26.77;15.93;;;;;;;1.64;100.00;99992.31;5012939;28;20183;-75
2022/12/05 00:31:59;;;;;;;23.47;17.20;;;;;;;1.75;100.00;100003.09;4980889;28;20235;-72
2022/12/05 00:34:24;;;;;;;25.77;16.50;;;;;;;1.69;100.00;100002.38;5010129;28;20298;-76
2022/12/05 00:36:50;;;;;;;21.80;17.43;;;;;;;1.69;100.00;99999.84;5027003;28;20206;-76
2022/12/05 00:39:15;;;;;;;23.17;16.63;;;;;;;1.70;100.00;100009.97;4997580;28;20326;-74
2022/12/05 00:41:41;;;;;;;21.70;15.33;;;;;;;1.73;100.00;100006.53;5002858;28;20259;-73
2022/12/05 00:44:07;;;;;;;22.23;15.27;;;;;;;1.75;100.00;100010.69;5007310;28;20207;-76
2022/12/05 00:46:34;;;;;;;21.77;16.53;;;;;;;1.76;100.00;100014.91;5010679;28;20196;-75
2022/12/05 00:49:01;;;;;;;21.67;16.07;;;;;;;1.85;100.00;100010.50;4984142;28;20644;-76
2022/12/05 00:51:44;;;;;;;20.67;16.20;;;;;;;1.76;100.00;100011.53;5020274;28;20219;-75
2022/12/05 00:54:13;;;;;;;21.13;16.00;;;;;;;1.74;100.00;100019.16;5001918;28;20185;-77
2022/12/05 00:56:38;;;;;;;20.93;15.00;;;;;;;1.75;100.00;100015.78;5019161;28;20190;-77
2022/12/05 00:59:05;;;;;;;19.70;14.83;;;;;;;1.91;100.00;100028.13;5007073;28;20624;-77
2022/12/05 01:01:34;;;;;;;23.93;15.70;;;;;;;1.83;100.00;100020.69;5006415;28;20308;-75
2022/12/05 01:04:03;;;;;;;22.00;15.17;;;;;;;1.73;100.00;100026.81;5010753;28;20220;-75
2022/12/05 01:06:29;;;;;;;19.17;14.07;;;;;;;1.78;100.00;100030.09;5012027;28;20185;-75
2022/12/05 01:08:56;;;;;;;21.20;15.50;;;;;;;1.77;100.00;100029.28;5012055;28;20220;-75
2022/12/05 01:11:22;;;;;;;22.50;14.63;;;;;;;1.87;100.00;100029.94;5011940;28;20235;-75
2022/12/05 01:13:48;;;;;;;19.27;13.90;;;;;;;1.94;100.00;100033.97;5010723;28;20281;-75
2022/12/05 01:16:34;;;;;;;19.33;14.30;;;;;;;1.90;100.00;100021.41;5012429;28;20691;-73
2022/12/05 01:19:03;;;;;;;15.10;12.47;;;;;;;2.07;100.00;100026.97;5016844;28;20169;-76
2022/12/05 01:21:28;;;;;;;15.87;11.87;;;;;;;2.16;100.00;100030.19;5019929;28;20233;-75
2022/12/05 01:23:54;;;;;;;16.53;12.57;;;;;;;2.18;100.00;100031.81;5016347;28;20209;-75
2022/12/05 01:26:21;;;;;;;16.30;11.77;;;;;;;2.24;100.00;100028.31;5010009;28;20235;-74
2022/12/05 01:28:47;;;;;;;14.23;12.07;;;;;;;2.22;100.00;100033.44;5011768;28;20183;-68
2022/12/05 01:31:29;;;;;;;15.47;11.53;;;;;;;2.18;100.00;100036.06;5010309;28;20228;-75
2022/12/05 01:33:56;;;;;;;12.17;10.27;;;;;;;2.25;100.00;100040.16;5016212;28;20208;-75
2022/12/05 01:36:23;;;;;;;15.30;11.57;;;;;;;2.21;100.00;100041.91;5011413;28;20228;-75
2022/12/05 01:38:49;;;;;;;14.90;11.40;;;;;;;2.20;100.00;100041.94;5010500;28;20300;-75
2022/12/05 01:41:21;;;;;;;14.43;11.33;;;;;;;2.08;100.00;100043.03;5019735;28;20695;-75
2022/12/05 01:44:01;;;;;;;13.43;10.93;;;;;;;2.06;100.00;100045.59;5016617;28;20221;-75
2022/12/05 01:46:28;;;;;;;13.40;10.87;;;;;;;2.21;100.00;100051.25;5000273;28;20615;-75
2022/12/05 01:49:03;;;;;;;14.67;11.20;;;;;;;2.20;100.00;100049.56;5011785;28;20213;-75
2022/12/05 01:51:30;;;;;;;13.60;10.63;;;;;;;2.16;100.00;100046.25;5003705;28;20808;-74
2022/12/05 01:53:56;;;;;;;12.73;10.97;;;;;;;2.08;100.00;100054.03;5007381;28;20194;-73
2022/12/05 01:56:21;;;;;;;11.87;10.60;;;;;;;2.05;100.00;100056.63;4998342;28;20658;-74
2022/12/05 01:58:47;;;;;;;12.73;10.43;;;;;;;2.10;100.00;100064.13;5023312;28;20186;-75
2022/12/05 02:01:15;;;;;;;13.30;10.07;;;;;;;2.14;100.00;100058.13;5010035;28;20364;-75
2022/12/05 02:03:43;;;;;;;13.40;10.90;;;;;;;2.16;100.00;100055.56;5017524;28;20231;-74
2022/12/05 02:06:08;;;;;;;14.90;11.37;;;;;;;2.15;100.00;100058.97;5011644;28;20208;-76
2022/12/05 02:08:35;;;;;;;15.47;11.37;;;;;;;2.28;100.00;100051.94;5009022;28;20663;-75
2022/12/05 02:11:00;;;;;;;14.23;11.03;;;;;;;2.29;100.00;100056.16;5008693;28;20254;-73
2022/12/05 02:14:01;;;;;;;15.07;11.73;;;;;;;2.08;100.00;100051.50;5019255;28;20177;-74
2022/12/05 02:16:56;;;;;;;14.70;11.27;;;;;;;2.16;100.00;100048.78;5009551;28;20186;-74
2022/12/05 02:19:51;;;;;;;14.00;10.97;;;;;;;2.21;100.00;100041.91;5011746;28;20240;-74
2022/12/05 02:22:42;;;;;;;17.67;12.33;;;;;;;1.98;100.00;100042.38;5006620;28;20228;-75
2022/12/05 02:25:16;;;;;;;15.63;11.83;;;;;;;1.83;100.00;100045.22;5009498;28;20200;-74
2022/12/05 02:28:07;;;;;;;15.63;11.93;;;;;;;1.78;100.00;100043.59;5010671;28;20188;-74
2022/12/05 02:30:44;;;;;;;17.47;13.17;;;;;;;1.81;100.00;100044.41;5019318;28;20703;-74
2022/12/05 02:33:23;;;;;;;17.03;11.97;;;;;;;1.65;100.00;100043.88;5020598;28;20196;-75
2022/12/05 02:36:01;;;;;;;16.43;12.27;;;;;;;1.52;100.00;100045.81;5010968;28;20241;-74
2022/12/05 02:38:45;;;;;;;15.57;12.13;;;;;;;1.62;100.00;100054.91;5010919;28;20414;-75
2022/12/05 02:41:35;;;;;;;15.77;12.43;;;;;;;1.65;100.00;100047.25;5009942;28;20282;-72
2022/12/05 02:44:09;;;;;;;15.37;11.83;;;;;;;1.73;100.00;100065.69;5014124;28;20220;-73
2022/12/05 02:46:37;;;;;;;14.63;11.13;;;;;;;1.78;100.00;100055.44;5010666;28;20217;-74
2022/12/05 02:49:10;;;;;;;17.30;12.90;;;;;;;1.84;100.00;100055.34;5010690;28;20182;-75
2022/12/05 02:51:42;;;;;;;13.93;11.83;;;;;;;2.00;100.00;100060.94;5012828;28;20239;-70
2022/12/05 02:54:13;;;;;;;16.43;12.70;;;;;;;2.02;100.00;100056.69;5007368;28;20274;-73
2022/12/05 02:56:41;;;;;;;15.00;12.00;;;;;;;2.00;100.00;100065.16;5011091;28;20186;-73
2022/12/05 02:59:06;;;;;;;13.73;11.90;;;;;;;1.98;100.00;100062.66;5012386;28;20214;-73
2022/12/05 03:01:31;;;;;;;13.33;11.10;;;;;;;2.01;100.00;100064.31;5022501;28;20321;-73
2022/12/05 03:04:00;;;;;;;14.90;11.50;;;;;;;2.06;100.00;100060.81;5018368;28;20404;-74
2022/12/05 03:06:31;;;;;;;13.50;12.07;;;;;;;1.99;100.00;100063.53;5013992;28;20180;-73
2022/12/05 03:09:14;;;;;;;13.43;11.40;;;;;;;1.96;100.00;100063.56;5012581;28;20200;-74
2022/12/05 03:11:48;;;;;;;14.03;11.53;;;;;;;2.08;100.00;100068.41;5015856;28;20268;-74
2022/12/05 03:14:21;;;;;;;13.20;10.50;;;;;;;2.12;100.00;100070.00;5013174;28;20640;-74
2022/12/05 03:16:50;;;;;;;13.90;9.97;;;;;;;2.13;100.00;100066.59;5013618;28;20299;-74
2022/12/05 03:19:26;;;;;;;13.03;10.70;;;;;;;2.01;100.00;100074.47;5014284;28;20195;-74
2022/12/05 03:21:59;;;;;;;10.30;9.20;;;;;;;2.17;100.00;100068.22;5006238;28;20229;-74
2022/12/05 03:24:25;;;;;;;10.33;9.23;;;;;;;1.94;100.00;100074.56;5014599;28;20256;-74
2022/12/05 03:27:08;;;;;;;10.77;8.90;;;;;;;1.80;100.00;100080.78;5028734;28;20176;-74
2022/12/05 03:29:52;;;;;;;9.90;8.87;;;;;;;1.94;100.00;100079.66;5014080;28;20183;-74
2022/12/05 03:32:21;;;;;;;12.17;9.30;;;;;;;2.09;100.00;100083.59;5019555;28;20757;-74
2022/12/05 03:34:57;;;;;;;12.63;10.33;;;;;;;2.03;100.00;100085.44;5013939;28;20191;-74
2022/12/05 03:37:40;;;;;;;12.10;10.20;;;;;;;2.02;100.00;100087.13;5013897;28;20189;-73
2022/12/05 03:40:10;;;;;;;12.20;9.90;;;;;;;1.93;100.00;100099.97;5004543;28;20193;-75
2022/12/05 03:42:40;;;;;;;17.07;10.43;;;;;;;2.00;100.00;100093.94;5012633;28;20186;-74
2022/12/05 03:45:10;;;;;;;14.53;11.03;;;;;;;1.86;100.00;100095.88;5013686;28;20271;-75
2022/12/05 03:47:42;;;;;;;16.20;11.47;;;;;;;1.91;100.00;100096.63;5028643;28;20724;-75
2022/12/05 03:50:41;;;;;;;16.00;11.87;;;;;;;1.89;100.00;100098.38;5004334;28;20256;-76
2022/12/05 03:53:14;;;;;;;18.93;13.90;;;;;;;1.97;100.00;100096.50;4911192;29;20196;-75
2022/12/05 03:55:42;;;;;;;18.30;12.63;;;;;;;1.88;100.00;100097.53;4920922;29;20201;-76
2022/12/05 03:58:16;;;;;;;19.03;14.17;;;;;;;2.03;100.00;100100.66;4942191;28;20193;-74
2022/12/05 04:00:46;;;;;;;21.50;14.63;;;;;;;2.17;100.00;100101.22;4914167;28;20431;-75
2022/12/05 04:03:21;;;;;;;20.80;14.73;;;;;;;2.21;100.00;100100.28;4933358;29;20216;-75
2022/12/05 04:05:56;;;;;;;18.57;14.33;;;;;;;2.08;100.00;100102.25;4933736;29;20189;-74
2022/12/05 04:08:34;;;;;;;18.23;14.23;;;;;;;2.07;100.00;100090.41;4932027;29;20230;-75
2022/12/05 04:11:04;;;;;;;19.93;15.00;;;;;;;2.27;100.00;100086.66;4923476;29;20241;-76
2022/12/05 04:13:36;;;;;;;22.13;14.87;;;;;;;2.39;100.00;100098.25;4937178;29;20235;-74
2022/12/05 04:19:01;;;;;;;20.20;13.57;;;;;;;2.29;100.00;100091.69;4933723;29;20192;-75
2022/12/05 04:21:39;;;;;;;24.63;13.80;;;;;;;2.34;100.00;100097.50;4923501;29;20695;-74
2022/12/05 04:27:20;;;;;;;22.50;14.33;;;;;;;2.16;100.00;100113.91;4933009;29;20278;-73
2022/12/05 04:29:59;;;;;;;23.07;14.23;;;;;;;2.23;100.00;100110.41;5008934;28;20205;-73
2022/12/05 04:32:29;;;;;;;21.80;14.10;;;;;;;2.34;100.00;100108.47;4981729;28;20698;-74
2022/12/05 04:35:00;;;;;;;19.93;13.73;;;;;;;2.37;100.00;100112.66;5011077;28;20208;-74
2022/12/05 04:37:32;;;;;;;19.40;14.43;;;;;;;2.45;100.00;100109.97;5011140;28;20186;-72
2022/12/05 04:40:05;;;;;;;18.37;13.73;;;;;;;2.42;100.00;100118.50;5001315;28;20666;-75
2022/12/05 04:42:34;;;;;;;20.47;14.13;;;;;;;2.16;100.00;100113.91;5001737;28;20226;-75
2022/12/05 04:45:05;;;;;;;20.67;14.43;;;;;;;1.91;100.00;100120.31;5011832;28;20736;-75
2022/12/05 04:47:42;;;;;;;18.47;14.63;;;;;;;1.85;100.00;100128.03;5012313;28;20190;-74
2022/12/05 04:50:11;;;;;;;18.57;13.97;;;;;;;2.01;100.00;100136.22;5010557;28;20276;-72
2022/12/05 04:52:38;;;;;;;20.93;16.20;;;;;;;2.06;100.00;100133.56;5011193;28;20188;-73
2022/12/05 04:55:11;;;;;;;21.47;15.50;;;;;;;1.92;100.00;100134.69;5012250;28;20200;-73
2022/12/05 04:57:49;;;;;;;23.63;14.93;;;;;;;2.11;100.00;100139.41;5011872;28;20292;-73
2022/12/05 05:00:15;;;;;;;23.00;16.50;;;;;;;2.04;100.00;100141.22;5001083;28;20671;-74
2022/12/05 05:02:53;;;;;;;25.27;16.90;;;;;;;2.02;100.00;100144.66;5014644;28;20181;-74
2022/12/05 05:05:19;;;;;;;23.43;17.60;;;;;;;1.98;100.00;100140.50;5011181;28;20322;-74
2022/12/05 05:07:50;;;;;;;22.93;16.33;;;;;;;1.94;100.00;100144.78;5011578;28;20677;-74
2022/12/05 05:10:24;;;;;;;25.80;16.93;;;;;;;2.11;100.00;100141.94;5002164;28;20715;-74
2022/12/05 05:12:49;;;;;;;29.30;18.40;;;;;;;2.18;100.00;100145.19;5024372;28;20649;-74
2022/12/05 05:15:15;;;;;;;24.50;16.97;;;;;;;2.03;100.00;100144.59;5012092;28;20182;-74
2022/12/05 05:17:40;;;;;;;26.10;17.37;;;;;;;2.09;100.00;100141.13;5011583;28;20494;-74
2022/12/05 05:20:26;;;;;;;28.37;18.47;;;;;;;2.17;100.00;100130.81;5002006;28;20194;-73
2022/12/05 05:22:53;;;;;;;25.60;18.20;;;;;;;2.26;100.00;100144.19;5023793;28;20641;-74
2022/12/05 05:25:19;;;;;;;26.60;17.97;;;;;;;2.22;100.00;100150.19;5012194;28;20585;-74
2022/12/05 05:27:53;;;;;;;26.70;16.93;;;;;;;2.28;100.00;100140.78;5010271;28;20628;-75
2022/12/05 05:30:20;;;;;;;30.77;20.13;;;;;;;2.40;100.00;100148.97;5018668;28;20182;-74
2022/12/05 05:32:45;;;;;;;27.20;18.73;;;;;;;2.18;100.00;100142.66;5025121;28;20186;-74
2022/12/05 05:35:12;;;;;;;32.53;18.93;;;;;;;2.34;100.00;100138.13;5011740;28;20191;-74
2022/12/05 05:37:37;;;;;;;33.33;18.47;;;;;;;2.37;100.00;100128.75;5011412;28;20518;-73
2022/12/05 05:40:07;;;;;;;30.77;18.73;;;;;;;2.32;100.00;100115.31;5005894;28;20177;-73
2022/12/05 05:42:33;;;;;;;28.47;17.10;;;;;;;2.19;100.00;100132.47;5026335;28;20281;-73
2022/12/05 05:44:58;;;;;;;32.80;18.93;;;;;;;2.14;100.00;100139.34;5011565;28;20559;-72
2022/12/05 05:47:23;;;;;;;37.03;20.13;;;;;;;2.07;100.00;100141.16;5006166;28;20196;-73
2022/12/05 05:49:49;;;;;;;28.73;17.83;;;;;;;2.22;100.00;100144.25;5005923;28;20191;-72
2022/12/05 05:52:14;;;;;;;29.13;19.90;;;;;;;2.32;100.00;100140.69;5016364;28;20648;-73
2022/12/05 05:54:39;;;;;;;34.40;19.87;;;;;;;2.29;100.00;100139.91;5011801;28;20272;-74
2022/12/05 05:57:05;;;;;;;31.17;19.70;;;;;;;2.38;100.00;100147.34;5010863;28;20652;-74
2022/12/05 05:59:30;;;;;;;30.97;18.57;;;;;;;2.44;100.00;100149.75;5011659;28;20578;-74
2022/12/05 06:01:55;;;;;;;31.43;18.33;;;;;;;2.42;100.00;100154.88;5015113;28;20226;-74
2022/12/05 06:04:21;;;;;;;30.13;18.33;;;;;;;2.57;100.00;100145.28;5010040;28;20272;-73
2022/12/05 06:06:46;;;;;;;32.13;19.17;;;;;;;2.53;100.00;100148.72;5026261;28;20193;-73
2022/12/05 06:09:11;;;;;;;35.57;18.87;;;;;;;2.60;100.00;100150.28;5011717;28;20230;-74
2022/12/05 06:11:37;;;;;;;29.07;17.17;;;;;;;2.65;100.00;100151.00;5012421;28;20829;-75
2022/12/05 06:14:02;;;;;;;27.87;17.87;;;;;;;2.64;100.00;100159.53;5014956;28;20235;-74
2022/12/05 06:16:30;;;;;;;31.03;18.60;;;;;;;2.48;100.00;100156.47;5010717;28;20197;-73
2022/12/05 06:18:56;;;;;;;27.27;17.40;;;;;;;2.56;100.00;100167.28;5009788;28;20185;-75
2022/12/05 06:21:22;;;;;;;25.77;17.30;;;;;;;2.70;100.00;100161.91;5011006;28;20227;-75
2022/12/05 06:23:48;;;;;;;29.30;18.10;;;;;;;2.58;100.00;100170.63;5016586;28;20996;-74
2022/12/05 06:26:16;;;;;;;28.40;17.60;;;;;;;2.66;100.00;100167.94;5026315;28;20629;-72
2022/12/05 06:28:41;;;;;;;28.80;17.33;;;;;;;2.76;100.00;100172.84;5011196;28;20183;-74
2022/12/05 06:31:16;;;;;;;28.03;17.43;;;;;;;2.77;100.00;100170.25;5009221;28;20240;-75
2022/12/05 06:33:42;;;;;;;29.13;18.60;;;;;;;2.86;100.00;100159.06;5013991;28;20181;-75
2022/12/05 06:36:12;;;;;;;26.10;17.77;;;;;;;2.92;100.00;100166.53;5015078;28;20178;-74
2022/12/05 06:38:41;;;;;;;27.37;17.27;;;;;;;2.93;100.00;100163.13;5015055;28;20211;-75
2022/12/05 06:41:09;;;;;;;29.03;17.43;;;;;;;2.89;100.00;100161.50;5012498;28;20239;-74
2022/12/05 06:43:34;;;;;;;28.07;16.97;;;;;;;2.84;100.00;100160.78;5020849;28;20202;-73
2022/12/05 06:46:04;;;;;;;26.10;17.80;;;;;;;2.88;100.00;100159.88;5021524;28;20185;-74
2022/12/05 06:48:29;;;;;;;24.80;15.97;;;;;;;2.96;100.00;100167.31;5015054;28;20186;-74
2022/12/05 06:50:55;;;;;;;26.03;17.77;;;;;;;2.88;100.00;100167.50;5011172;28;20364;-74
2022/12/05 06:53:20;;;;;;;24.50;15.93;;;;;;;2.81;100.00;100171.03;5023316;28;20679;-74
2022/12/05 06:56:00;;;;;;;28.33;17.83;;;;;;;2.72;100.00;100182.22;5014396;28;20212;-73
2022/12/05 06:58:26;;;;;;;25.33;16.23;;;;;;;2.76;100.00;100173.66;5014412;28;20189;-73
2022/12/05 07:03:36;;;;;;;28.37;18.03;;;;;;;2.70;100.00;100191.56;5010979;28;20206;-74
2022/12/05 07:06:04;;;;;;;31.17;18.20;;;;;;;2.61;100.00;100187.50;5013177;28;20186;-74
2022/12/05 07:08:30;;;;;;;28.37;17.47;;;;;;;2.62;100.00;100198.50;5013604;28;20909;-73
2022/12/05 07:10:55;;;;;;;25.87;16.73;;;;;;;2.76;100.00;100195.69;5010344;28;20238;-73
2022/12/05 07:13:20;;;;;;;24.57;16.27;;;;;;;2.68;100.00;100195.81;5012783;28;20225;-73
2022/12/05 07:15:47;;;;;;;31.50;18.80;;;;;;;2.68;100.00;100204.31;5029714;28;20174;-73
2022/12/05 07:18:13;;;;;;;23.43;16.43;;;;;;;2.56;100.00;100207.91;5013449;28;20198;-73
2022/12/05 07:20:38;;;;;;;27.60;17.17;;;;;;;2.68;100.00;100211.06;5005224;28;20611;-72
2022/12/05 07:23:03;;;;;;;23.83;16.13;;;;;;;2.66;100.00;100206.03;5024440;28;20190;-74
2022/12/05 07:25:28;;;;;;;31.17;17.50;;;;;;;2.38;100.00;100200.66;5029386;28;20186;-74
2022/12/05 07:27:54;;;;;;;25.87;16.33;;;;;;;2.50;100.00;100200.41;5013973;28;20189;-73
2022/12/05 07:30:19;;;;;;;27.03;16.70;;;;;;;2.49;100.00;100208.88;5004691;28;20181;-74
2022/12/05 07:32:47;;;;;;;28.47;16.37;;;;;;;2.66;100.00;100210.28;5023850;28;20187;-74
2022/12/05 07:35:13;;;;;;;26.43;16.80;;;;;;;2.49;100.00;100221.59;5013215;28;20197;-74
2022/12/05 07:37:38;;;;;;;27.33;16.60;;;;;;;2.45;100.00;100217.44;5012897;28;20236;-73
2022/12/05 07:40:04;;;;;;;30.10;17.70;;;;;;;2.47;100.00;100220.81;5001825;28;20272;-72
2022/12/05 07:42:30;;;;;;;25.90;16.47;;;;;;;2.58;100.00;100230.75;5022560;28;20226;-73
2022/12/05 07:44:55;;;;;;;25.00;16.13;;;;;;;2.72;100.00;100223.69;5010978;28;20276;-73
2022/12/05 07:47:20;;;;;;;25.57;17.57;;;;;;;2.72;100.00;100231.31;5012753;28;20185;-72
2022/12/05 07:49:46;;;;;;;27.47;17.17;;;;;;;2.84;100.00;100231.91;5013053;28;20597;-73
2022/12/05 07:52:14;;;;;;;30.90;17.73;;;;;;;2.94;100.00;100238.50;5017694;28;20235;-74
2022/12/05 07:54:39;;;;;;;28.83;16.97;;;;;;;2.93;100.00;100235.97;5027611;28;20187;-68
2022/12/05 07:57:04;;;;;;;23.67;17.37;;;;;;;2.92;100.00;100240.22;5012947;28;20197;-69
2022/12/05 07:59:30;;;;;;;31.60;18.60;;;;;;;2.54;100.00;100242.69;5013689;28;20186;-69
2022/12/05 08:01:55;;;;;;;31.83;18.73;;;;;;;2.51;100.00;100244.44;5005906;28;20243;-71
2022/12/05 08:04:20;;;;;;;34.00;19.77;;;;;;;2.33;100.00;100243.06;5013587;28;20202;-70
2022/12/05 08:06:48;;;;;;;30.17;19.30;;;;;;;2.50;100.00;100258.81;5012391;28;20516;-66
2022/12/05 08:09:13;;;;;;;33.07;20.43;;;;;;;2.70;100.00;100266.06;5028293;28;20285;-70
2022/12/05 08:11:39;;;;;;;31.23;19.47;;;;;;;2.48;100.00;100267.34;4988189;28;20709;-70
2022/12/05 08:14:05;;;;;;;35.23;19.30;;;;;;;2.69;100.00;100266.94;5016313;28;20269;-70
2022/12/05 08:16:31;;;;;;;30.80;18.30;;;;;;;2.55;100.00;100267.19;5004193;28;20229;-69
2022/12/05 08:19:07;;;;;;;36.10;22.20;;;;;;;2.60;100.00;100272.19;5011240;28;20269;-68
2022/12/05 08:21:33;;;;;;;28.90;18.53;;;;;;;2.84;100.00;100264.94;5015707;28;20293;-69
2022/12/05 08:23:59;;;;;;;27.17;18.77;;;;;;;2.77;100.00;100263.41;5016576;28;20384;-70
2022/12/05 08:26:30;;;;;;;30.90;19.77;;;;;;;2.64;100.00;100265.34;5012214;28;20261;-69
2022/12/05 08:28:57;;;;;;;31.73;18.60;;;;;;;2.54;100.00;100264.69;5012404;28;20380;-69
2022/12/05 08:31:25;;;;;;;34.00;20.13;;;;;;;2.68;100.00;100266.94;4980877;28;20830;-69
2022/12/05 08:33:51;;;;;;;32.40;20.33;;;;;;;2.76;100.00;100266.81;5009758;28;20265;-68
2022/12/05 08:36:18;;;;;;;40.23;19.87;;;;;;;2.62;100.00;100272.16;4994547;28;20194;-66
2022/12/05 08:38:44;;;;;;;38.40;21.33;;;;;;;2.80;100.00;100276.06;5027424;28;20228;-69
2022/12/05 08:41:16;;;;;;;36.60;21.90;;;;;;;2.87;100.00;100286.06;5012195;28;20226;-69
2022/12/05 08:43:42;;;;;;;37.20;21.63;;;;;;;2.88;100.00;100285.19;5012096;28;20205;-69
2022/12/05 08:46:08;;;;;;;35.63;21.13;;;;;;;2.69;100.00;100286.41;5012793;28;20190;-68
2022/12/05 08:48:34;;;;;;;36.10;20.43;;;;;;;2.63;100.00;100287.38;5011894;28;20182;-68
2022/12/05 08:51:04;;;;;;;37.33;22.17;;;;;;;2.73;100.00;100293.13;5009591;28;20221;-70
2022/12/05 08:53:30;;;;;;;37.67;22.50;;;;;;;2.88;100.00;100302.16;5027315;28;20552;-70
2022/12/05 08:55:59;;;;;;;36.67;22.13;;;;;;;3.05;100.00;100294.16;5012184;28;20196;-69
2022/12/05 08:58:24;;;;;;;37.53;21.97;;;;;;;3.03;100.00;100299.28;5010498;28;20197;-69
2022/12/05 09:00:50;;;;;;;35.47;20.80;;;;;;;3.17;100.00;100300.72;5007978;28;20222;-68
2022/12/05 09:03:15;;;;;;;36.93;22.20;;;;;;;2.97;100.00;100299.41;5021148;28;20189;-68
2022/12/05 09:05:40;;;;;;;31.83;20.13;;;;;;;2.93;100.00;100307.97;5026768;28;20636;-68
2022/12/05 09:08:06;;;;;;;29.40;19.57;;;;;;;3.06;100.00;100306.88;5010289;28;20666;-68
2022/12/05 09:10:31;;;;;;;53.03;36.97;;;;;;;3.19;100.00;100310.00;5005562;28;21142;-67
2022/12/05 09:12:56;;;;;;;30.43;20.17;;;;;;;3.16;100.00;100310.06;5023360;28;20186;-68
2022/12/05 09:15:21;;;;;;;31.43;19.60;;;;;;;3.31;100.00;100313.13;5011967;28;20209;-69
2022/12/05 09:17:47;;;;;;;31.73;20.13;;;;;;;3.48;100.00;100305.16;5011104;28;20630;-70
2022/12/05 09:20:12;;;;;;;26.63;18.90;;;;;;;3.67;100.00;100308.13;5002803;28;20201;-68
2022/12/05 09:22:41;;;;;;;28.47;18.77;;;;;;;3.68;100.00;100302.16;5025719;28;20179;-69
2022/12/05 09:25:08;;;;;;;25.30;17.57;;;;;;;3.71;100.00;100302.94;5026919;28;20201;-68
2022/12/05 09:27:33;;;;;;;27.03;17.70;;;;;;;3.74;100.00;100312.19;5010036;28;20191;-69
2022/12/05 09:29:58;;;;;;;26.63;17.40;;;;;;;3.83;100.00;100311.16;5011917;28;20539;-70
2022/12/05 09:32:24;;;;;;;26.57;17.63;;;;;;;3.85;100.00;100317.88;5000720;28;20314;-70
2022/12/05 09:34:49;;;;;;;27.73;18.93;;;;;;;3.51;100.00;100313.56;5011880;28;20233;-68
2022/12/05 09:37:14;;;;;;;26.73;18.03;;;;;;;3.57;100.00;100315.13;5008035;28;20190;-68
2022/12/05 09:39:44;;;;;;;26.90;18.43;;;;;;;3.38;100.00;100324.88;5010162;28;20182;-69
2022/12/05 09:42:42;;;;;;;23.53;17.27;;;;;;;3.15;100.00;100326.19;5002378;28;20226;-69
2022/12/05 09:45:40;;;;;;;24.67;17.53;;;;;;;3.41;100.00;100321.41;4998095;28;20682;-69
2022/12/05 09:48:14;;;;;;;25.30;17.37;;;;;;;3.38;100.00;100327.41;4931623;29;20688;-68
2022/12/05 09:50:47;;;;;;;25.10;17.93;;;;;;;3.45;100.00;100321.31;4920442;28;20267;-68
2022/12/05 09:53:47;;;;;;;25.63;17.37;;;;;;;3.47;100.00;100331.47;4925561;29;20414;-68
2022/12/05 09:56:27;;;;;;;27.20;17.97;;;;;;;3.47;100.00;100329.75;4883266;29;20234;-68
2022/12/05 09:58:54;;;;;;;23.53;17.47;;;;;;;3.57;100.00;100327.84;4877923;29;20242;-67
2022/12/05 10:01:49;;;;;;;24.93;17.17;;;;;;;3.58;100.00;100326.97;4884403;29;20266;-68
2022/12/05 10:04:57;;;;;;;26.07;16.57;;;;;;;3.74;100.00;100316.47;4867372;29;20252;-68
2022/12/05 10:07:42;;;;;;;19.30;15.10;;;;;;;3.82;100.00;100315.41;4847129;29;20248;-68
2022/12/05 10:10:24;;;;;;;21.93;15.73;;;;;;;3.78;100.00;100313.78;4850179;29;20287;-68
2022/12/05 10:13:18;;;;;;;20.57;14.23;;;;;;;3.89;100.00;100318.66;4860328;29;20231;-68
2022/12/05 10:15:49;;;;;;;18.63;15.03;;;;;;;3.76;100.00;100313.00;4850940;29;20272;-68
2022/12/05 10:18:40;;;;;;;23.23;16.07;;;;;;;3.88;100.00;100311.88;4860114;29;20206;-69
2022/12/05 10:21:08;;;;;;;20.10;14.77;;;;;;;3.94;100.00;100308.38;4847522;29;20229;-69
2022/12/05 10:23:46;;;;;;;18.90;14.90;;;;;;;4.18;100.00;100301.81;4848429;29;20291;-68
2022/12/05 10:26:14;;;;;;;21.00;15.60;;;;;;;4.43;100.00;100293.56;4893308;29;20211;-69
2022/12/05 10:28:57;;;;;;;23.40;16.57;;;;;;;4.65;100.00;100297.25;4881228;29;20233;-69
2022/12/05 10:31:32;;;;;;;19.43;14.73;;;;;;;4.44;100.00;100300.34;4927529;29;20238;-68
2022/12/05 10:34:13;;;;;;;22.50;15.10;;;;;;;4.53;100.00;100305.22;4937400;29;20525;-69
2022/12/05 10:36:49;;;;;;;23.00;15.40;;;;;;;4.53;100.00;100305.22;4946353;28;20193;-68
2022/12/05 10:39:15;;;;;;;18.20;13.33;;;;;;;4.47;100.00;100306.19;4950162;28;20212;-68
2022/12/05 10:41:40;;;;;;;18.73;14.60;;;;;;;4.60;100.00;100304.19;4946577;28;20711;-69
2022/12/05 10:44:06;;;;;;;21.00;14.27;;;;;;;4.53;100.00;100306.03;5017292;28;20231;-69
2022/12/05 10:46:31;;;;;;;17.17;12.53;;;;;;;4.56;100.00;100297.47;5014074;28;20187;-68
2022/12/05 10:48:57;;;;;;;16.60;13.43;;;;;;;4.73;100.00;100298.75;5013984;28;20212;-68
2022/12/05 10:51:27;;;;;;;12.53;10.77;;;;;;;4.72;100.00;100290.25;5022354;28;20593;-68
2022/12/05 10:53:53;;;;;;;16.87;11.13;;;;;;;4.49;100.00;100291.72;5011252;28;20209;-67
2022/12/05 10:56:48;;;;;;;14.33;11.10;;;;;;;4.40;100.00;100286.84;5012946;28;20195;-67
2022/12/05 10:59:20;;;;;;;15.27;11.23;;;;;;;4.44;100.00;100285.91;5014454;28;20184;-69
2022/12/05 11:01:51;;;;;;;13.23;10.77;;;;;;;4.62;100.00;100288.84;5017121;28;20241;-68
2022/12/05 11:04:22;;;;;;;16.83;11.90;;;;;;;4.52;100.00;100283.16;5016145;28;20693;-68
2022/12/05 11:06:59;;;;;;;14.27;10.80;;;;;;;4.25;100.00;100284.69;5013200;28;20674;-67
2022/12/05 11:09:35;;;;;;;15.57;11.80;;;;;;;4.28;100.00;100294.78;5012120;28;20737;-68
2022/12/05 11:12:15;;;;;;;13.23;10.43;;;;;;;4.07;100.00;100291.06;5017561;28;20238;-69
2022/12/05 11:14:53;;;;;;;12.43;10.30;;;;;;;4.02;100.00;100297.13;5013811;28;20587;-67
2022/12/05 11:17:37;;;;;;;14.77;10.83;;;;;;;4.22;100.00;100290.72;5010385;28;20189;-68
2022/12/05 11:20:23;;;;;;;12.73;10.40;;;;;;;4.15;100.00;100301.91;5023243;28;20648;-67
2022/12/05 11:22:50;;;;;;;13.73;10.67;;;;;;;4.32;100.00;100301.50;5028262;28;20187;-68
2022/12/05 11:25:25;;;;;;;14.37;10.63;;;;;;;4.02;100.00;100303.94;5029455;28;20206;-68
2022/12/05 11:27:50;;;;;;;12.87;11.00;;;;;;;4.23;100.00;100297.47;5028814;28;20222;-68
2022/12/05 11:30:22;;;;;;;15.77;11.47;;;;;;;4.35;100.00;100292.06;4994348;28;20223;-68
2022/12/05 11:32:49;;;;;;;14.23;10.90;;;;;;;4.30;100.00;100300.69;5020540;28;20184;-69